Time;durP1;ratioP1;P1;durP2;ratioP2;P2;SDS_P1;SDS_P2;PMS_P1;PMS_P2;Temp;Humidity;BMP_temperature;BMP_pressure;BME280_temperature;BME280_humidity;BME280_pressure;Samples;Min_cycle;Max_cycle;Signal;HPM_P1;HPM_P2
2022/10/09 00:00:37;;;;;;;;;;;;;;;20.78;49.56;102187.84;5119335;27;19934;-38
2022/10/09 00:03:03;;;;;;;;;;;;;;;20.78;49.74;102185.09;5134351;27;20070;-37
2022/10/09 00:05:28;;;;;;;;;;;;;;;20.79;49.59;102185.94;5135859;27;20312;-38
2022/10/09 00:07:54;;;;;;;;;;;;;;;20.79;49.78;102186.75;5140762;27;19930;-37
2022/10/09 00:10:20;;;;;;;;;;;;;;;20.78;49.93;102184.25;5136818;27;19934;-37
2022/10/09 00:12:45;;;;;;;;;;;;;;;20.79;49.62;102188.69;5138578;27;19931;-38
2022/10/09 00:15:11;;;;;;;;;;;;;;;20.77;49.76;102188.97;5135504;27;20359;-38
2022/10/09 00:17:37;;;;;;;;;;;;;;;20.78;49.60;102190.63;5135812;27;19942;-38
2022/10/09 00:20:02;;;;;;;;;;;;;;;20.78;49.62;102182.31;5143114;27;19931;-38
2022/10/09 00:22:28;;;;;;;;;;;;;;;20.79;49.60;102185.94;5139593;27;19979;-38
2022/10/09 00:24:53;;;;;;;;;;;;;;;20.78;49.74;102185.09;5135542;27;19946;-38
2022/10/09 00:27:20;;;;;;;;;;;;;;;20.77;49.72;102183.44;5137683;27;19972;-38
2022/10/09 00:29:46;;;;;;;;;;;;;;;20.77;49.71;102183.44;5136144;27;20010;-38
2022/10/09 00:32:11;;;;;;;;;;;;;;;20.78;49.63;102182.31;5138601;27;20007;-38
2022/10/09 00:34:37;;;;;;;;;;;;;;;20.79;49.68;102184.00;5133781;27;19930;-38
2022/10/09 00:37:02;;;;;;;;;;;;;;;20.78;49.76;102181.50;5136352;27;19968;-37
2022/10/09 00:39:28;;;;;;;;;;;;;;;20.79;49.57;102183.16;5139930;27;19923;-38
2022/10/09 00:41:54;;;;;;;;;;;;;;;20.78;49.62;102190.63;5137028;27;19938;-38
2022/10/09 00:44:39;;;;;;;;;;;;;;;20.78;49.58;102185.09;5140520;27;20399;-37
2022/10/09 00:47:04;;;;;;;;;;;;;;;20.79;49.54;102188.69;5121557;27;20347;-38
2022/10/09 00:49:31;;;;;;;;;;;;;;;20.79;49.55;102188.69;5136427;27;20519;-38
2022/10/09 00:51:57;;;;;;;;;;;;;;;20.79;49.77;102183.16;5122558;27;19962;-38
2022/10/09 00:54:23;;;;;;;;;;;;;;;20.78;49.67;102182.31;5124899;27;20006;-38
2022/10/09 00:56:49;;;;;;;;;;;;;;;20.78;49.61;102176.78;5121427;27;20027;-38
2022/10/09 00:59:15;;;;;;;;;;;;;;;20.78;49.55;102182.31;5136878;27;19958;-38
2022/10/09 01:01:40;;;;;;;;;;;;;;;20.79;49.70;102174.84;5115665;27;19988;-37
2022/10/09 01:04:06;;;;;;;;;;;;;;;20.78;49.61;102184.25;5137195;27;19927;-38
2022/10/09 01:06:51;;;;;;;;;;;;;;;20.79;49.60;102185.94;5138474;27;19967;-38
2022/10/09 01:09:18;;;;;;;;;;;;;;;20.77;49.75;102183.44;5137624;27;20402;-38
2022/10/09 01:12:04;;;;;;;;;;;;;;;20.79;49.68;102189.53;5119304;27;19958;-37
2022/10/09 01:14:31;;;;;;;;;;;;;;;20.78;49.63;102187.84;5123294;27;20435;-38
2022/10/09 01:17:17;;;;;;;;;;;;;;;20.78;49.54;102187.03;5117967;27;19974;-38
2022/10/09 01:20:02;;;;;;;;;;;;;;;20.79;49.54;102181.22;5123064;27;19923;-38
2022/10/09 01:22:39;;;;;;;;;;;;;;;20.79;49.72;102180.38;5125109;27;20477;-37
2022/10/09 01:25:05;;;;;;;;;;;;;;;20.78;49.52;102175.94;5122078;27;19966;-38
2022/10/09 01:27:31;;;;;;;;;;;;;;;20.78;49.55;102176.78;5143971;27;19927;-38
2022/10/09 01:30:05;;;;;;;;;;;;;;;20.78;49.70;102178.72;5144065;27;19962;-37
2022/10/09 01:32:31;;;;;;;;;;;;;;;20.78;49.71;102171.25;5144162;27;20402;-38
2022/10/09 01:34:57;;;;;;;;;;;;;;;20.79;49.51;102180.38;5140543;27;20474;-38
2022/10/09 01:37:22;;;;;;;;;;;;;;;20.78;49.56;102168.47;5139186;27;19934;-38
2022/10/09 01:39:48;;;;;;;;;;;;;;;20.79;49.72;102174.84;5119921;27;19950;-38
2022/10/09 01:42:14;;;;;;;;;;;;;;;20.77;49.68;102172.34;5144659;27;20018;-38
2022/10/09 01:44:40;;;;;;;;;;;;;;;20.79;49.60;102174.84;5138967;27;19977;-38
2022/10/09 01:47:06;;;;;;;;;;;;;;;20.78;49.59;102165.72;5144574;27;19923;-37
2022/10/09 01:49:40;;;;;;;;;;;;;;;20.77;49.63;102166.81;5143274;27;20010;-38
2022/10/09 01:52:10;;;;;;;;;;;;;;;20.78;49.63;102173.19;5138592;27;19956;-37
2022/10/09 01:54:37;;;;;;;;;;;;;;;20.78;49.56;102165.72;5142899;27;20030;-38
2022/10/09 01:57:03;;;;;;;;;;;;;;;20.78;49.60;102165.72;5123069;27;19966;-38
2022/10/09 01:59:29;;;;;;;;;;;;;;;20.78;49.50;102157.41;5122178;27;20011;-37
2022/10/09 02:01:55;;;;;;;;;;;;;;;20.78;49.62;102154.63;5144431;27;19924;-38
2022/10/09 02:04:20;;;;;;;;;;;;;;;20.78;49.53;102159.34;5123847;27;19972;-37
2022/10/09 02:06:46;;;;;;;;;;;;;;;20.78;49.63;102153.81;5141857;27;20302;-38
2022/10/09 02:09:13;;;;;;;;;;;;;;;20.78;49.49;102151.88;5141991;27;19930;-37
2022/10/09 02:11:38;;;;;;;;;;;;;;;20.78;49.69;102146.34;5142263;27;19963;-38
2022/10/09 02:14:04;;;;;;;;;;;;;;;20.78;49.53;102145.50;5144266;27;19938;-38
2022/10/09 02:16:38;;;;;;;;;;;;;;;20.78;49.59;102146.34;5140773;27;20283;-38
2022/10/09 02:19:09;;;;;;;;;;;;;;;20.78;49.64;102139.97;5120698;27;20180;-38
2022/10/09 02:21:39;;;;;;;;;;;;;;;20.77;49.59;102138.31;5121394;27;20126;-38
2022/10/09 02:24:05;;;;;;;;;;;;;;;20.78;49.68;102137.19;5144325;27;20366;-38
2022/10/09 02:26:31;;;;;;;;;;;;;;;20.78;49.70;102135.25;5143315;27;20282;-37
2022/10/09 02:28:56;;;;;;;;;;;;;;;20.78;49.56;102135.25;5142429;27;19958;-38
2022/10/09 02:31:26;;;;;;;;;;;;;;;20.79;49.51;102138.84;5145109;27;19930;-38
2022/10/09 02:33:55;;;;;;;;;;;;;;;20.79;49.60;102141.63;5125566;27;19992;-38
2022/10/09 02:36:21;;;;;;;;;;;;;;;20.78;49.60;102145.50;5121865;27;19963;-38
2022/10/09 02:38:46;;;;;;;;;;;;;;;20.78;49.56;102142.72;5145615;27;21342;-38
2022/10/09 02:41:12;;;;;;;;;;;;;;;20.79;49.42;102147.16;5143297;27;19923;-38
2022/10/09 02:43:37;;;;;;;;;;;;;;;20.78;49.64;102140.78;5137070;27;20340;-38
2022/10/09 02:46:03;;;;;;;;;;;;;;;20.77;49.55;102144.66;5139184;27;19938;-38
2022/10/09 02:48:28;;;;;;;;;;;;;;;20.78;49.58;102148.28;5139884;27;19927;-38
2022/10/09 02:50:54;;;;;;;;;;;;;;;20.78;49.59;102138.03;5139823;27;19932;-38
2022/10/09 02:53:19;;;;;;;;;;;;;;;20.78;49.51;102143.56;5142471;27;20397;-38
2022/10/09 02:55:45;;;;;;;;;;;;;;;20.78;49.59;102142.72;5140465;27;19923;-38
2022/10/09 02:58:10;;;;;;;;;;;;;;;20.78;49.54;102139.97;5142078;27;19942;-37
2022/10/09 03:00:36;;;;;;;;;;;;;;;20.77;49.51;102130.81;5143809;27;20363;-38
2022/10/09 03:03:02;;;;;;;;;;;;;;;20.78;49.56;102145.50;5119991;27;20010;-37
2022/10/09 03:05:27;;;;;;;;;;;;;;;20.78;49.50;102135.25;5138628;27;19927;-38
2022/10/09 03:07:53;;;;;;;;;;;;;;;20.77;49.56;102141.91;5139405;27;19934;-37
2022/10/09 03:10:19;;;;;;;;;;;;;;;20.78;49.61;102139.97;5140320;27;19928;-38
2022/10/09 03:12:44;;;;;;;;;;;;;;;20.78;49.59;102138.03;5121742;27;19946;-38
2022/10/09 03:15:10;;;;;;;;;;;;;;;20.78;49.54;102139.97;5136673;27;19931;-37
2022/10/09 03:17:36;;;;;;;;;;;;;;;20.78;49.51;102134.44;5138031;27;19949;-38
2022/10/09 03:20:01;;;;;;;;;;;;;;;20.78;49.53;102134.44;5137431;27;19931;-37
2022/10/09 03:22:27;;;;;;;;;;;;;;;20.78;49.67;102134.44;5138306;27;19935;-38
2022/10/09 03:24:53;;;;;;;;;;;;;;;20.77;49.48;102136.38;5136077;27;19930;-37
2022/10/09 03:27:18;;;;;;;;;;;;;;;20.77;49.26;102130.81;5123216;27;19927;-38
2022/10/09 03:29:44;;;;;;;;;;;;;;;20.77;49.48;102133.59;5137493;27;19923;-37
2022/10/09 03:32:09;;;;;;;;;;;;;;;20.77;49.58;102130.81;5145540;27;19927;-37
2022/10/09 03:34:35;;;;;;;;;;;;;;;20.77;49.53;102133.59;5140593;27;19923;-38
2022/10/09 03:37:01;;;;;;;;;;;;;;;20.77;49.67;102130.81;5132165;27;19924;-38
2022/10/09 03:39:26;;;;;;;;;;;;;;;20.78;49.50;102128.88;5134748;27;19927;-37
2022/10/09 03:41:52;;;;;;;;;;;;;;;20.78;49.44;102123.34;5141858;27;19931;-38
2022/10/09 03:44:17;;;;;;;;;;;;;;;20.78;49.53;102129.72;5142279;27;19931;-37
2022/10/09 03:46:43;;;;;;;;;;;;;;;20.78;49.47;102123.34;5141361;27;20374;-37
2022/10/09 03:49:08;;;;;;;;;;;;;;;20.78;49.53;102117.81;5141135;27;19950;-37
2022/10/09 03:51:34;;;;;;;;;;;;;;;20.78;49.50;102106.75;5143324;27;19923;-38
2022/10/09 03:53:59;;;;;;;;;;;;;;;20.78;49.63;102117.81;5137294;27;20005;-38
2022/10/09 03:56:25;;;;;;;;;;;;;;;20.78;49.51;102126.13;5137743;27;19927;-37
2022/10/09 03:58:51;;;;;;;;;;;;;;;20.78;49.50;102126.13;5136656;27;20067;-37
2022/10/09 04:01:16;;;;;;;;;;;;;;;20.78;49.54;102126.13;5140282;27;19939;-38
2022/10/09 04:03:42;;;;;;;;;;;;;;;20.77;49.50;102128.06;5136711;27;20298;-37
2022/10/09 04:06:07;;;;;;;;;;;;;;;20.78;49.58;102135.25;5137788;27;21102;-38
2022/10/09 04:08:34;;;;;;;;;;;;;;;20.77;49.44;102124.47;5134853;27;19923;-38
2022/10/09 04:10:59;;;;;;;;;;;;;;;20.78;49.63;102124.19;5135865;27;20279;-37
2022/10/09 04:13:25;;;;;;;;;;;;;;;20.78;49.50;102126.13;5142654;27;19924;-38
2022/10/09 04:15:51;;;;;;;;;;;;;;;20.78;49.64;102126.94;5119678;27;19927;-38
2022/10/09 04:18:17;;;;;;;;;;;;;;;20.77;49.63;102121.69;5139086;27;20317;-38
2022/10/09 04:20:47;;;;;;;;;;;;;;;20.78;49.46;102132.50;5118200;27;19942;-38
2022/10/09 04:23:12;;;;;;;;;;;;;;;20.78;49.50;102126.13;5142263;27;20379;-37
2022/10/09 04:25:38;;;;;;;;;;;;;;;20.78;49.50;102128.88;5143346;27;19934;-38
2022/10/09 04:28:03;;;;;;;;;;;;;;;20.77;49.65;102116.97;5136101;27;19923;-38
2022/10/09 04:30:29;;;;;;;;;;;;;;;20.78;49.56;102124.19;5146121;27;19935;-38
2022/10/09 04:32:55;;;;;;;;;;;;;;;20.78;49.50;102117.81;5137140;27;19930;-38
2022/10/09 04:35:20;;;;;;;;;;;;;;;20.78;49.42;102117.81;5138299;27;20366;-38
2022/10/09 04:37:46;;;;;;;;;;;;;;;20.78;49.68;102115.03;5139187;27;19977;-38
2022/10/09 04:40:11;;;;;;;;;;;;;;;20.78;49.49;102118.66;5139098;27;19949;-37
2022/10/09 04:42:37;;;;;;;;;;;;;;;20.77;49.45;102111.44;5139068;27;20375;-37
2022/10/09 04:45:03;;;;;;;;;;;;;;;20.78;49.46;102099.28;5136039;27;19927;-38
2022/10/09 04:47:28;;;;;;;;;;;;;;;20.77;49.44;102097.59;5121661;27;20286;-38
2022/10/09 04:49:54;;;;;;;;;;;;;;;20.78;49.44;102103.97;5142129;27;19923;-38
2022/10/09 04:52:19;;;;;;;;;;;;;;;20.76;49.62;102093.13;5143918;27;20386;-38
2022/10/09 04:54:45;;;;;;;;;;;;;;;20.77;49.34;102094.00;5140332;27;20051;-38
2022/10/09 04:57:10;;;;;;;;;;;;;;;20.78;49.54;102103.97;5143495;27;19934;-38
2022/10/09 04:59:36;;;;;;;;;;;;;;;20.77;49.45;102096.78;5141790;27;19923;-38
2022/10/09 05:02:02;;;;;;;;;;;;;;;20.77;49.54;102088.47;5141218;27;19938;-37
2022/10/09 05:04:28;;;;;;;;;;;;;;;20.78;49.50;102090.13;5141084;27;20333;-37
2022/10/09 05:06:53;;;;;;;;;;;;;;;20.77;49.43;102086.53;5143434;27;19935;-37
2022/10/09 05:09:19;;;;;;;;;;;;;;;20.78;49.51;102098.44;5139117;27;19923;-37
2022/10/09 05:11:44;;;;;;;;;;;;;;;20.78;49.44;102088.19;5139613;27;19927;-37
2022/10/09 05:14:10;;;;;;;;;;;;;;;20.77;49.41;102086.53;5150665;27;19931;-38
2022/10/09 05:16:35;;;;;;;;;;;;;;;20.77;49.45;102086.53;5144394;27;19923;-38
2022/10/09 05:19:21;;;;;;;;;;;;;;;20.77;49.52;102086.53;5116020;27;20386;-38
2022/10/09 05:21:47;;;;;;;;;;;;;;;20.77;49.51;102080.16;5136514;27;19927;-37
2022/10/09 05:24:12;;;;;;;;;;;;;;;20.76;49.45;102079.31;5149036;27;19931;-38
2022/10/09 05:26:38;;;;;;;;;;;;;;;20.76;49.48;102082.06;5150875;27;19931;-37
2022/10/09 05:29:03;;;;;;;;;;;;;;;20.77;49.48;102082.94;5145639;27;19946;-37
2022/10/09 05:31:30;;;;;;;;;;;;;;;20.77;49.46;102092.06;5143208;27;19924;-37
2022/10/09 05:33:57;;;;;;;;;;;;;;;20.77;49.56;102092.06;5141116;27;19923;-38
2022/10/09 05:36:23;;;;;;;;;;;;;;;20.77;49.38;102088.47;5141096;27;20010;-38
2022/10/09 05:38:48;;;;;;;;;;;;;;;20.77;49.36;102094.00;5137018;27;19931;-37
2022/10/09 05:41:15;;;;;;;;;;;;;;;20.78;49.43;102095.66;5142787;27;19939;-38
2022/10/09 05:43:41;;;;;;;;;;;;;;;20.78;49.45;102090.13;5141302;27;19970;-38
2022/10/09 05:46:08;;;;;;;;;;;;;;;20.77;49.52;102094.84;5119913;27;19963;-38
2022/10/09 05:48:34;;;;;;;;;;;;;;;20.77;49.48;102092.06;5117855;27;20294;-38
2022/10/09 05:51:15;;;;;;;;;;;;;;;20.77;49.56;102089.28;5142488;27;20366;-38
2022/10/09 05:53:41;;;;;;;;;;;;;;;20.77;49.38;102094.00;5120769;27;20022;-37
2022/10/09 05:56:09;;;;;;;;;;;;;;;20.77;49.53;102088.47;5124670;27;20026;-38
2022/10/09 05:58:34;;;;;;;;;;;;;;;20.75;49.35;102091.47;5143821;27;19950;-38
2022/10/09 06:01:00;;;;;;;;;;;;;;;20.77;49.35;102085.69;5140852;27;19934;-37
2022/10/09 06:03:26;;;;;;;;;;;;;;;20.77;49.38;102091.25;5138691;27;19923;-38
2022/10/09 06:05:51;;;;;;;;;;;;;;;20.78;49.43;102098.44;5144001;27;19935;-38
2022/10/09 06:08:17;;;;;;;;;;;;;;;20.78;49.46;102093.72;5143534;27;20010;-38
2022/10/09 06:10:42;;;;;;;;;;;;;;;20.77;49.36;102088.47;5141574;27;19931;-37
2022/10/09 06:13:08;;;;;;;;;;;;;;;20.77;49.34;102094.00;5139875;27;20333;-38
2022/10/09 06:15:34;;;;;;;;;;;;;;;20.77;49.60;102097.59;5140329;27;19930;-38
2022/10/09 06:17:59;;;;;;;;;;;;;;;20.77;49.47;102099.53;5141020;27;19923;-38
2022/10/09 06:20:25;;;;;;;;;;;;;;;20.77;49.33;102096.78;5136599;27;19923;-38
2022/10/09 06:22:50;;;;;;;;;;;;;;;20.77;49.37;102102.31;5140353;27;20014;-37
2022/10/09 06:25:16;;;;;;;;;;;;;;;20.77;49.41;102105.91;5144998;27;19935;-38
2022/10/09 06:27:42;;;;;;;;;;;;;;;20.76;49.35;102103.38;5144723;27;19929;-38
2022/10/09 06:30:08;;;;;;;;;;;;;;;20.76;49.37;102098.69;5143744;27;20375;-37
2022/10/09 06:32:33;;;;;;;;;;;;;;;20.76;49.46;102098.69;5136931;27;19960;-38
2022/10/09 06:34:59;;;;;;;;;;;;;;;20.77;49.45;102103.13;5141676;27;19923;-38
2022/10/09 06:37:24;;;;;;;;;;;;;;;20.78;49.34;102101.19;5140771;27;19924;-38
2022/10/09 06:39:50;;;;;;;;;;;;;;;20.77;49.36;102099.53;5142400;27;19988;-37
2022/10/09 06:42:16;;;;;;;;;;;;;;;20.76;49.31;102098.69;5141444;27;19941;-37
2022/10/09 06:44:43;;;;;;;;;;;;;;;20.77;49.47;102096.78;5141238;27;19927;-38
2022/10/09 06:47:08;;;;;;;;;;;;;;;20.76;49.35;102095.91;5137979;27;19981;-37
2022/10/09 06:49:34;;;;;;;;;;;;;;;20.76;49.37;102098.69;5129164;27;19923;-38
2022/10/09 06:51:59;;;;;;;;;;;;;;;20.76;49.60;102109.75;5140704;27;19924;-37
2022/10/09 06:54:25;;;;;;;;;;;;;;;20.77;49.38;102105.91;5138609;27;20387;-37
2022/10/09 06:56:52;;;;;;;;;;;;;;;20.77;49.37;102097.59;5138833;27;19927;-37
2022/10/09 06:59:17;;;;;;;;;;;;;;;20.77;49.44;102110.63;5142501;27;20332;-38
2022/10/09 07:01:43;;;;;;;;;;;;;;;20.77;49.43;102099.53;5138674;27;19943;-38
2022/10/09 07:04:10;;;;;;;;;;;;;;;20.77;49.51;102102.31;5144383;27;19923;-37
2022/10/09 07:06:37;;;;;;;;;;;;;;;20.77;49.40;102110.63;5125536;27;19994;-38
2022/10/09 07:09:03;;;;;;;;;;;;;;;20.77;49.46;102113.38;5142437;27;19965;-38
2022/10/09 07:11:30;;;;;;;;;;;;;;;20.77;49.51;102114.22;5121331;27;20407;-38
2022/10/09 07:13:56;;;;;;;;;;;;;;;20.77;49.33;102107.84;5117217;27;20018;-38
2022/10/09 07:16:23;;;;;;;;;;;;;;;20.77;49.45;102110.63;5120193;27;20014;-38
2022/10/09 07:18:49;;;;;;;;;;;;;;;20.77;49.38;102107.84;5129163;27;19939;-37
2022/10/09 07:21:14;;;;;;;;;;;;;;;20.76;49.28;102101.44;5114660;28;19982;-38
2022/10/09 07:23:40;;;;;;;;;;;;;;;20.77;49.47;102099.53;5141304;27;19932;-37
2022/10/09 07:26:10;;;;;;;;;;;;;;;20.77;49.44;102107.84;5125387;27;19927;-37
2022/10/09 07:28:35;;;;;;;;;;;;;;;20.76;49.34;102098.69;5130852;27;20370;-38
2022/10/09 07:31:02;;;;;;;;;;;;;;;20.76;49.44;102112.53;5138397;27;19980;-38
2022/10/09 07:33:27;;;;;;;;;;;;;;;20.76;49.33;102106.97;5119475;27;20018;-38
2022/10/09 07:35:54;;;;;;;;;;;;;;;20.77;49.14;102097.59;5138894;27;19923;-37
2022/10/09 07:38:19;;;;;;;;;;;;;;;20.76;49.31;102106.97;5123694;27;20460;-38
2022/10/09 07:40:45;;;;;;;;;;;;;;;20.77;49.36;102091.25;5141062;27;19924;-38
2022/10/09 07:43:10;;;;;;;;;;;;;;;20.77;49.52;102082.94;5140596;27;19927;-38
2022/10/09 07:45:36;;;;;;;;;;;;;;;20.77;49.31;102086.53;5132963;27;19930;-38
2022/10/09 07:48:01;;;;;;;;;;;;;;;20.77;49.30;102080.16;5119281;27;20296;-38
2022/10/09 07:50:27;;;;;;;;;;;;;;;20.76;49.44;102087.59;5144096;27;19942;-38
2022/10/09 07:52:52;;;;;;;;;;;;;;;20.77;49.34;102086.53;5138255;27;19942;-38
2022/10/09 07:55:18;;;;;;;;;;;;;;;20.76;49.36;102087.59;5138852;27;19995;-38
2022/10/09 07:57:43;;;;;;;;;;;;;;;20.77;49.42;102086.53;5135880;27;19924;-37
2022/10/09 08:00:10;;;;;;;;;;;;;;;20.77;49.25;102089.28;5140003;27;19930;-38
2022/10/09 08:02:35;;;;;;;;;;;;;;;20.76;49.34;102087.59;5137923;27;20005;-38
2022/10/09 08:05:01;;;;;;;;;;;;;;;20.76;49.44;102087.59;5138879;27;19927;-37
2022/10/09 08:07:26;;;;;;;;;;;;;;;20.77;49.37;102089.28;5141411;27;19931;-38
2022/10/09 08:09:57;;;;;;;;;;;;;;;20.77;49.52;102086.53;5133210;27;20383;-38
2022/10/09 08:12:23;;;;;;;;;;;;;;;20.76;49.27;102082.06;5136384;27;19934;-37
2022/10/09 08:14:49;;;;;;;;;;;;;;;20.77;49.33;102082.94;5139185;27;19927;-37
2022/10/09 08:17:14;;;;;;;;;;;;;;;20.76;49.37;102082.06;5139934;27;19923;-38
2022/10/09 08:19:40;;;;;;;;;;;;;;;20.77;49.39;102080.16;5138287;27;20015;-38
2022/10/09 08:22:06;;;;;;;;;;;;;;;20.76;49.54;102078.47;5139725;27;19992;-38
2022/10/09 08:24:31;;;;;;;;;;;;;;;20.77;49.29;102071.84;5137861;27;19931;-38
2022/10/09 08:26:57;;;;;;;;;;;;;;;20.76;49.33;102075.69;5140143;27;19942;-38
2022/10/09 08:29:22;;;;;;;;;;;;;;;20.76;49.25;102079.31;5139356;27;19930;-38
2022/10/09 08:31:48;;;;;;;;;;;;;;;20.77;49.31;102077.41;5140686;27;19934;-38
2022/10/09 08:34:13;;;;;;;;;;;;;;;20.77;49.37;102077.41;5140930;27;19927;-38
2022/10/09 08:36:39;;;;;;;;;;;;;;;20.76;49.30;102076.53;5141459;27;19923;-38
2022/10/09 08:39:04;;;;;;;;;;;;;;;20.77;49.46;102077.41;5138638;27;19923;-38
2022/10/09 08:41:34;;;;;;;;;;;;;;;20.78;49.29;102076.28;5139805;27;19957;-37
2022/10/09 08:44:00;;;;;;;;;;;;;;;20.76;49.44;102068.22;5145160;27;20001;-37
2022/10/09 08:46:28;;;;;;;;;;;;;;;20.77;49.33;102069.91;5143860;27;19985;-37
2022/10/09 08:48:54;;;;;;;;;;;;;;;20.77;49.51;102069.09;5145889;27;19938;-38
2022/10/09 08:51:21;;;;;;;;;;;;;;;20.77;49.36;102069.09;5143424;27;19923;-38
2022/10/09 08:53:49;;;;;;;;;;;;;;;20.76;49.37;102061.84;5142583;27;20781;-38
2022/10/09 08:56:14;;;;;;;;;;;;;;;20.77;49.33;102063.56;5122449;27;20048;-38
2022/10/09 08:58:40;;;;;;;;;;;;;;;20.76;49.39;102056.31;5121159;27;19935;-37
2022/10/09 09:01:15;;;;;;;;;;;;;;;20.76;49.38;102057.16;5141346;27;19968;-37
2022/10/09 09:03:45;;;;;;;;;;;;;;;20.76;49.34;102051.63;5121949;27;20282;-38
2022/10/09 09:06:13;;;;;;;;;;;;;;;20.76;49.33;102059.09;5124464;27;20442;-38
2022/10/09 09:08:44;;;;;;;;;;;;;;;20.76;49.26;102046.09;5121161;27;20018;-38
2022/10/09 09:11:19;;;;;;;;;;;;;;;20.76;49.29;102040.53;5121163;27;19938;-38
2022/10/09 09:13:51;;;;;;;;;;;;;;;20.75;49.31;102041.66;5137912;27;19930;-38
2022/10/09 09:16:23;;;;;;;;;;;;;;;20.76;49.40;102040.53;5142775;27;20030;-38
2022/10/09 09:18:52;;;;;;;;;;;;;;;20.76;49.37;102035.00;5124166;27;20017;-38
2022/10/09 09:21:29;;;;;;;;;;;;;;;20.76;49.38;102035.00;5142596;27;19977;-38
2022/10/09 09:23:54;;;;;;;;;;;;;;;20.76;49.23;102029.47;5147181;27;20399;-38
2022/10/09 09:26:20;;;;;;;;;;;;;;;20.76;49.35;102023.94;5141492;27;19923;-38
2022/10/09 09:28:46;;;;;;;;;;;;;;;20.76;49.37;102023.94;5123994;27;19935;-38
2022/10/09 09:31:27;;;;;;;;;;;;;;;20.76;49.39;102021.16;5123181;27;19923;-38
2022/10/09 09:34:01;;;;;;;;;;;;;;;20.77;49.38;102010.94;5122746;27;19931;-37
2022/10/09 09:36:29;;;;;;;;;;;;;;;20.77;49.22;102013.72;5123228;27;20007;-38
2022/10/09 09:38:55;;;;;;;;;;;;;;;20.76;49.33;102007.31;5141896;27;20466;-38
2022/10/09 09:41:41;;;;;;;;;;;;;;;20.76;49.39;102010.09;5127650;27;19923;-37
2022/10/09 09:44:08;;;;;;;;;;;;;;;20.77;49.36;102009.00;5139618;27;20355;-38
2022/10/09 09:46:33;;;;;;;;;;;;;;;20.76;49.38;102007.31;5120112;27;20464;-38
2022/10/09 09:48:59;;;;;;;;;;;;;;;20.76;49.38;102001.78;5143715;27;19928;-38
2022/10/09 09:51:26;;;;;;;;;;;;;;;20.77;49.44;102005.41;5143360;27;19923;-38
2022/10/09 09:53:55;;;;;;;;;;;;;;;20.77;49.41;101997.94;5141077;27;19927;-38
2022/10/09 09:56:30;;;;;;;;;;;;;;;20.77;49.27;102000.72;5124990;27;20026;-37
2022/10/09 09:59:35;;;;;;;;;;;;;;;20.77;49.44;101997.09;5125605;27;19923;-37
2022/10/09 10:02:02;;;;;;;;;;;;;;;20.76;49.42;101990.72;5124280;27;20444;-38
2022/10/09 10:04:28;;;;;;;;;;;;;;;20.75;49.40;101980.75;5141375;27;19923;-37
2022/10/09 10:06:54;;;;;;;;;;;;;;;20.76;49.44;101978.81;5139892;27;20204;-38
2022/10/09 10:09:19;;;;;;;;;;;;;;;20.77;49.36;101975.78;5120395;27;19954;-38
2022/10/09 10:11:46;;;;;;;;;;;;;;;20.76;49.31;101965.78;5122866;27;19930;-37
2022/10/09 10:14:12;;;;;;;;;;;;;;;20.76;49.32;101964.97;5122639;27;19974;-37
2022/10/09 10:16:38;;;;;;;;;;;;;;;20.77;49.47;101961.13;5124375;27;20291;-38
2022/10/09 10:19:05;;;;;;;;;;;;;;;20.76;49.28;101957.50;5143822;27;19938;-37
2022/10/09 10:21:38;;;;;;;;;;;;;;;20.77;49.36;101956.41;5125669;27;19959;-38
2022/10/09 10:24:04;;;;;;;;;;;;;;;20.76;49.35;101943.66;5142704;27;20040;-38
2022/10/09 10:26:34;;;;;;;;;;;;;;;20.77;49.39;101947.28;5144287;27;19923;-38
2022/10/09 10:29:20;;;;;;;;;;;;;;;20.76;49.41;101945.59;5120770;27;20263;-37
2022/10/09 10:31:54;;;;;;;;;;;;;;;20.76;49.37;101946.41;5126496;27;20185;-38
2022/10/09 10:34:23;;;;;;;;;;;;;;;20.76;49.36;101940.06;5136760;27;20332;-38
2022/10/09 10:36:49;;;;;;;;;;;;;;;20.75;49.40;101933.69;5121759;27;19970;-38
2022/10/09 10:39:20;;;;;;;;;;;;;;;20.76;49.46;101924.28;5137212;27;19970;-38
2022/10/09 10:41:46;;;;;;;;;;;;;;;20.77;49.37;101931.50;5138489;27;19935;-38
2022/10/09 10:44:21;;;;;;;;;;;;;;;20.76;49.31;101928.97;5144299;27;20022;-38
2022/10/09 10:46:48;;;;;;;;;;;;;;;20.76;49.39;101918.72;5142111;27;20349;-38
2022/10/09 10:49:16;;;;;;;;;;;;;;;20.76;49.64;101915.13;5137153;27;19931;-38
2022/10/09 10:51:52;;;;;;;;;;;;;;;20.77;49.42;101914.88;5137999;27;20387;-38
2022/10/09 10:57:04;;;;;;;;;;;;;;;20.76;49.46;101906.84;5168319;27;19930;-35
2022/10/09 11:02:28;;;;;;;;;;;;;;;20.76;49.38;101907.66;5173924;27;19929;-35
2022/10/09 11:05:05;;;;;;;;;;;;;;;20.76;49.38;101898.53;5153972;27;20029;-38
2022/10/09 11:07:36;;;;;;;;;;;;;;;20.77;49.46;101891.91;5171530;27;20014;-38
2022/10/09 11:10:12;;;;;;;;;;;;;;;20.76;49.38;101893.81;5170988;27;19923;-38
2022/10/09 11:15:18;;;;;;;;;;;;;;;20.76;49.32;101881.91;5171757;27;19937;-38
2022/10/09 11:18:03;;;;;;;;;;;;;;;20.76;49.30;101882.75;5151702;27;20912;-38
2022/10/09 11:20:36;;;;;;;;;;;;;;;20.76;49.29;101874.44;5143426;27;19951;-37
2022/10/09 11:23:04;;;;;;;;;;;;;;;20.76;49.44;101866.13;5161149;27;20425;-38
2022/10/09 11:25:36;;;;;;;;;;;;;;;20.77;49.43;101865.06;5141574;27;20026;-38
2022/10/09 11:28:18;;;;;;;;;;;;;;;20.76;49.40;101859.78;5161150;27;19981;-38
2022/10/09 11:30:46;;;;;;;;;;;;;;;20.76;49.52;101848.69;5164223;27;19927;-37
2022/10/09 11:33:21;;;;;;;;;;;;;;;20.76;49.40;101846.75;5160193;27;19934;-38
2022/10/09 11:35:48;;;;;;;;;;;;;;;20.76;49.27;101841.22;5154645;27;19924;-38
2022/10/09 11:38:20;;;;;;;;;;;;;;;20.75;49.29;101839.56;5153128;27;19962;-38
2022/10/09 11:40:46;;;;;;;;;;;;;;;20.77;49.44;101833.78;5130375;27;20022;-37
2022/10/09 11:43:31;;;;;;;;;;;;;;;20.76;49.34;101824.63;5156404;27;19923;-38
2022/10/09 11:45:59;;;;;;;;;;;;;;;20.76;49.33;101832.09;5142546;27;20172;-37
2022/10/09 11:48:41;;;;;;;;;;;;;;;20.76;49.31;101824.63;5161982;27;20427;-37
2022/10/09 11:51:15;;;;;;;;;;;;;;;20.75;49.38;101814.66;5147004;27;19927;-37
2022/10/09 11:53:40;;;;;;;;;;;;;;;20.77;49.27;101817.16;5146899;27;20010;-38
2022/10/09 11:56:07;;;;;;;;;;;;;;;20.75;49.38;101808.28;5151252;27;20470;-38
2022/10/09 11:58:32;;;;;;;;;;;;;;;20.76;49.30;101812.72;5147956;27;20089;-38
2022/10/09 12:01:18;;;;;;;;;;;;;;;20.76;49.29;101807.19;5145773;27;20382;-37
2022/10/09 12:03:43;;;;;;;;;;;;;;;20.76;49.27;101802.47;5134317;27;19927;-38
2022/10/09 12:06:11;;;;;;;;;;;;;;;20.77;49.48;101795.03;5148076;27;19938;-38
2022/10/09 12:08:37;;;;;;;;;;;;;;;20.77;49.34;101797.78;5146046;27;20383;-38
2022/10/09 12:11:07;;;;;;;;;;;;;;;20.77;49.34;101789.50;5128231;27;19966;-38
2022/10/09 12:16:30;;;;;;;;;;;;;;;20.77;49.33;101770.09;5163396;27;19934;-35
2022/10/09 12:18:56;;;;;;;;;;;;;;;20.77;49.25;101770.09;5149924;27;19938;-35
2022/10/09 12:21:23;;;;;;;;;;;;;;;20.77;49.41;101762.63;5143493;27;19923;-35
2022/10/09 12:23:50;;;;;;;;;;;;;;;20.76;49.44;101752.63;5146749;27;20374;-35
2022/10/09 12:26:15;;;;;;;;;;;;;;;20.76;49.40;101749.88;5162473;27;20286;-35
2022/10/09 12:28:43;;;;;;;;;;;;;;;20.76;49.43;101754.56;5167489;27;19944;-35
2022/10/09 12:31:19;;;;;;;;;;;;;;;20.76;49.42;101741.56;5164851;27;19935;-35
2022/10/09 12:33:46;;;;;;;;;;;;;;;20.76;49.27;101737.97;5162960;27;19927;-35
2022/10/09 12:36:13;;;;;;;;;;;;;;;20.76;49.29;101741.56;5144089;27;20369;-38
2022/10/09 12:38:39;;;;;;;;;;;;;;;20.76;49.44;101744.34;5145736;27;19989;-38
2022/10/09 12:41:06;;;;;;;;;;;;;;;20.76;49.36;101732.44;5142277;27;20357;-37
2022/10/09 12:43:31;;;;;;;;;;;;;;;20.77;49.35;101731.34;5145834;27;20010;-37
2022/10/09 12:45:57;;;;;;;;;;;;;;;20.76;49.39;101730.50;5141659;27;19923;-37
2022/10/09 12:48:24;;;;;;;;;;;;;;;20.77;49.34;101720.28;5144576;27;20013;-37